Weather at York Airport

Public forecast

Using degrees Fahrenheit for public forecast. Weather courtesy of forecast.io.

Current aviation weather report (METAR) for York Airport

Retrieved 2021/03/08 02:53 UTC (2 hours ago):

KTHV 080253Z AUTO 00000KT 10SM CLR M06/M09 A3040 RMK AO2 SLP303 T10561094 53014

Closest aviation forecast (TAF) to York Airport

Closest forecast is Harrisburg International Airport, 17.3 nm (32.1 km) NNE. Retrieved 2021-03-08 00:24 UTC (4 hours ago):

TAF KMDT 072323Z 0800/0824 32008KT P6SM SKC FM080200 VRB03KT P6SM SKC FM081900 27005KT P6SM SCT050